sensor_id;sensor_type;location;lat;lon;timestamp;pressure;altitude;pressure_sealevel;temperature;humidity
12868;BME280;33517;49.866;8.320;2023-04-27T00:01:17;100688.94;;;5.96;71.31
12868;BME280;33517;49.866;8.320;2023-04-27T00:04:09;100687.66;;;5.90;71.17
12868;BME280;33517;49.866;8.320;2023-04-27T00:07:03;100683.03;;;5.83;71.29
12868;BME280;33517;49.866;8.320;2023-04-27T00:09:55;100673.94;;;5.77;71.21
12868;BME280;33517;49.866;8.320;2023-04-27T00:12:47;100676.81;;;5.74;71.69
12868;BME280;33517;49.866;8.320;2023-04-27T00:15:39;100675.16;;;5.73;71.38
12868;BME280;33517;49.866;8.320;2023-04-27T00:18:32;100670.31;;;5.69;71.66
12868;BME280;33517;49.866;8.320;2023-04-27T00:21:24;100665.72;;;5.61;71.23
12868;BME280;33517;49.866;8.320;2023-04-27T00:24:16;100667.56;;;5.49;71.52
12868;BME280;33517;49.866;8.320;2023-04-27T00:27:08;100663.75;;;5.33;71.58
12868;BME280;33517;49.866;8.320;2023-04-27T00:30:03;100657.16;;;5.18;71.84
12868;BME280;33517;49.866;8.320;2023-04-27T00:32:55;100665.25;;;5.04;72.14
12868;BME280;33517;49.866;8.320;2023-04-27T00:35:49;100666.16;;;4.93;72.56
12868;BME280;33517;49.866;8.320;2023-04-27T00:38:40;100666.28;;;4.81;72.58
12868;BME280;33517;49.866;8.320;2023-04-27T00:41:35;100660.16;;;4.71;72.48
12868;BME280;33517;49.866;8.320;2023-04-27T00:44:27;100659.09;;;4.62;72.44
12868;BME280;33517;49.866;8.320;2023-04-27T00:47:19;100668.22;;;4.56;72.36
12868;BME280;33517;49.866;8.320;2023-04-27T00:50:11;100659.94;;;4.51;72.96
12868;BME280;33517;49.866;8.320;2023-04-27T00:53:05;100654.97;;;4.48;73.03
12868;BME280;33517;49.866;8.320;2023-04-27T00:55:57;100658.63;;;4.46;73.26
12868;BME280;33517;49.866;8.320;2023-04-27T00:58:49;100664.09;;;4.43;73.92
12868;BME280;33517;49.866;8.320;2023-04-27T01:01:41;100665.28;;;4.39;73.42
12868;BME280;33517;49.866;8.320;2023-04-27T01:04:34;100670.88;;;4.34;73.74
12868;BME280;33517;49.866;8.320;2023-04-27T01:07:26;100666.00;;;4.30;73.77
12868;BME280;33517;49.866;8.320;2023-04-27T01:10:19;100668.94;;;4.25;74.37
12868;BME280;33517;49.866;8.320;2023-04-27T01:13:11;100673.34;;;4.25;76.59
12868;BME280;33517;49.866;8.320;2023-04-27T01:16:04;100674.28;;;4.24;77.63
12868;BME280;33517;49.866;8.320;2023-04-27T01:18:56;100672.84;;;4.20;76.56
12868;BME280;33517;49.866;8.320;2023-04-27T01:21:48;100677.59;;;4.15;76.28
12868;BME280;33517;49.866;8.320;2023-04-27T01:24:41;100683.03;;;4.12;75.73
12868;BME280;33517;49.866;8.320;2023-04-27T01:27:33;100681.00;;;4.04;75.94
12868;BME280;33517;49.866;8.320;2023-04-27T01:30:25;100683.28;;;3.98;75.97
12868;BME280;33517;49.866;8.320;2023-04-27T01:33:18;100690.50;;;3.94;76.63
12868;BME280;33517;49.866;8.320;2023-04-27T01:36:10;100688.94;;;3.92;75.94
12868;BME280;33517;49.866;8.320;2023-04-27T01:39:02;100693.56;;;3.88;76.27
12868;BME280;33517;49.866;8.320;2023-04-27T01:42:00;100693.63;;;3.87;79.69
12868;BME280;33517;49.866;8.320;2023-04-27T01:44:53;100697.53;;;3.81;82.08
12868;BME280;33517;49.866;8.320;2023-04-27T01:47:45;100694.22;;;3.79;79.69
12868;BME280;33517;49.866;8.320;2023-04-27T01:50:37;100694.47;;;3.76;79.42
12868;BME280;33517;49.866;8.320;2023-04-27T01:53:28;100685.94;;;3.74;78.87
12868;BME280;33517;49.866;8.320;2023-04-27T01:56:21;100688.78;;;3.71;78.12
12868;BME280;33517;49.866;8.320;2023-04-27T01:59:14;100682.94;;;3.67;78.22
12868;BME280;33517;49.866;8.320;2023-04-27T02:02:06;100691.00;;;3.64;78.10
12868;BME280;33517;49.866;8.320;2023-04-27T02:04:58;100685.91;;;3.63;78.35
12868;BME280;33517;49.866;8.320;2023-04-27T02:07:50;100683.78;;;3.57;78.24
12868;BME280;33517;49.866;8.320;2023-04-27T02:10:41;100687.53;;;3.53;77.67
12868;BME280;33517;49.866;8.320;2023-04-27T02:13:33;100695.78;;;3.47;78.25
12868;BME280;33517;49.866;8.320;2023-04-27T02:16:27;100689.28;;;3.41;77.90
12868;BME280;33517;49.866;8.320;2023-04-27T02:19:19;100695.63;;;3.37;78.17
12868;BME280;33517;49.866;8.320;2023-04-27T02:22:11;100700.34;;;3.32;77.89
12868;BME280;33517;49.866;8.320;2023-04-27T02:25:03;100705.03;;;3.27;77.87
12868;BME280;33517;49.866;8.320;2023-04-27T02:27:55;100704.44;;;3.24;77.67
12868;BME280;33517;49.866;8.320;2023-04-27T02:30:47;100704.34;;;3.25;78.39
12868;BME280;33517;49.866;8.320;2023-04-27T02:33:41;100711.47;;;3.34;78.23
12868;BME280;33517;49.866;8.320;2023-04-27T02:36:32;100715.78;;;3.46;78.35
12868;BME280;33517;49.866;8.320;2023-04-27T02:39:24;100715.72;;;3.59;78.23
12868;BME280;33517;49.866;8.320;2023-04-27T02:42:16;100712.41;;;3.68;77.79
12868;BME280;33517;49.866;8.320;2023-04-27T02:45:09;100716.91;;;3.66;77.96
12868;BME280;33517;49.866;8.320;2023-04-27T02:48:01;100711.22;;;3.61;77.39
12868;BME280;33517;49.866;8.320;2023-04-27T02:50:54;100710.09;;;3.52;78.08
12868;BME280;33517;49.866;8.320;2023-04-27T02:53:46;100710.59;;;3.46;77.71
12868;BME280;33517;49.866;8.320;2023-04-27T02:56:38;100710.06;;;3.41;78.31
12868;BME280;33517;49.866;8.320;2023-04-27T02:59:31;100712.19;;;3.36;78.21
12868;BME280;33517;49.866;8.320;2023-04-27T03:02:23;100710.88;;;3.31;78.13
12868;BME280;33517;49.866;8.320;2023-04-27T03:05:15;100707.88;;;3.24;78.09
12868;BME280;33517;49.866;8.320;2023-04-27T03:08:08;100701.47;;;3.17;77.86
12868;BME280;33517;49.866;8.320;2023-04-27T03:11:00;100710.53;;;3.12;78.05
12868;BME280;33517;49.866;8.320;2023-04-27T03:13:52;100701.31;;;3.08;78.01
12868;BME280;33517;49.866;8.320;2023-04-27T03:16:44;100709.22;;;3.06;78.65
12868;BME280;33517;49.866;8.320;2023-04-27T03:19:36;100705.91;;;3.04;78.21
12868;BME280;33517;49.866;8.320;2023-04-27T03:22:28;100704.34;;;3.02;78.68
12868;BME280;33517;49.866;8.320;2023-04-27T03:25:21;100705.38;;;2.99;78.73
12868;BME280;33517;49.866;8.320;2023-04-27T03:28:13;100697.81;;;2.96;78.61
12868;BME280;33517;49.866;8.320;2023-04-27T03:31:06;100701.47;;;2.94;78.18
12868;BME280;33517;49.866;8.320;2023-04-27T03:33:58;100697.41;;;2.90;78.49
12868;BME280;33517;49.866;8.320;2023-04-27T03:36:50;100693.28;;;2.87;78.96
12868;BME280;33517;49.866;8.320;2023-04-27T03:39:42;100688.91;;;2.88;79.24
12868;BME280;33517;49.866;8.320;2023-04-27T03:42:35;100688.78;;;2.89;79.21
12868;BME280;33517;49.866;8.320;2023-04-27T03:45:27;100692.72;;;2.95;78.95
12868;BME280;33517;49.866;8.320;2023-04-27T03:48:19;100698.00;;;3.06;78.79
12868;BME280;33517;49.866;8.320;2023-04-27T03:51:12;100696.03;;;3.20;79.40
12868;BME280;33517;49.866;8.320;2023-04-27T03:54:04;100695.88;;;3.34;79.57
12868;BME280;33517;49.866;8.320;2023-04-27T03:56:56;100701.00;;;3.47;79.22
12868;BME280;33517;49.866;8.320;2023-04-27T03:59:49;100697.38;;;3.60;79.76
12868;BME280;33517;49.866;8.320;2023-04-27T04:02:41;100695.31;;;3.77;79.80
12868;BME280;33517;49.866;8.320;2023-04-27T04:05:33;100703.38;;;3.96;79.89
12868;BME280;33517;49.866;8.320;2023-04-27T04:08:25;100688.16;;;4.13;79.44
12868;BME280;33517;49.866;8.320;2023-04-27T04:11:17;100697.13;;;4.31;79.67
12868;BME280;33517;49.866;8.320;2023-04-27T04:14:09;100700.56;;;4.43;79.30
12868;BME280;33517;49.866;8.320;2023-04-27T04:17:02;100702.56;;;4.50;79.42
12868;BME280;33517;49.866;8.320;2023-04-27T04:19:54;100696.63;;;4.59;79.27
12868;BME280;33517;49.866;8.320;2023-04-27T04:22:46;100705.53;;;4.68;78.70
12868;BME280;33517;49.866;8.320;2023-04-27T04:25:38;100693.66;;;4.75;79.07
12868;BME280;33517;49.866;8.320;2023-04-27T04:28:31;100691.53;;;4.80;79.21
12868;BME280;33517;49.866;8.320;2023-04-27T04:31:23;100693.63;;;4.86;79.00
12868;BME280;33517;49.866;8.320;2023-04-27T04:34:17;100700.03;;;4.93;78.97
12868;BME280;33517;49.866;8.320;2023-04-27T04:37:09;100697.88;;;4.98;78.49
12868;BME280;33517;49.866;8.320;2023-04-27T04:40:06;100701.06;;;5.02;78.91
12868;BME280;33517;49.866;8.320;2023-04-27T04:42:59;100702.13;;;5.10;78.92
12868;BME280;33517;49.866;8.320;2023-04-27T04:45:51;100705.66;;;5.20;79.12
12868;BME280;33517;49.866;8.320;2023-04-27T04:48:43;100715.91;;;5.33;79.01
12868;BME280;33517;49.866;8.320;2023-04-27T04:51:36;100708.03;;;5.44;78.88
12868;BME280;33517;49.866;8.320;2023-04-27T04:54:32;100715.59;;;5.58;78.94
12868;BME280;33517;49.866;8.320;2023-04-27T04:57:24;100708.97;;;5.75;78.78
12868;BME280;33517;49.866;8.320;2023-04-27T05:00:16;100717.09;;;5.92;78.87
12868;BME280;33517;49.866;8.320;2023-04-27T05:03:08;100715.66;;;6.09;78.81
12868;BME280;33517;49.866;8.320;2023-04-27T05:06:00;100718.00;;;6.32;78.19
12868;BME280;33517;49.866;8.320;2023-04-27T05:08:53;100710.66;;;6.57;77.83
12868;BME280;33517;49.866;8.320;2023-04-27T05:11:45;100707.16;;;6.77;77.29
12868;BME280;33517;49.866;8.320;2023-04-27T05:14:37;100723.63;;;7.07;77.81
12868;BME280;33517;49.866;8.320;2023-04-27T05:17:29;100719.50;;;7.24;77.43
12868;BME280;33517;49.866;8.320;2023-04-27T05:20:21;100727.91;;;7.46;77.40
12868;BME280;33517;49.866;8.320;2023-04-27T05:23:12;100729.44;;;7.78;75.94
12868;BME280;33517;49.866;8.320;2023-04-27T05:26:11;100733.53;;;8.09;74.92
12868;BME280;33517;49.866;8.320;2023-04-27T05:29:03;100737.75;;;8.38;74.66
12868;BME280;33517;49.866;8.320;2023-04-27T05:31:55;100736.47;;;8.52;74.14
12868;BME280;33517;49.866;8.320;2023-04-27T05:34:47;100741.72;;;8.79;71.76
12868;BME280;33517;49.866;8.320;2023-04-27T05:37:39;100741.06;;;9.04;70.17
12868;BME280;33517;49.866;8.320;2023-04-27T05:40:31;100738.41;;;9.32;69.92
12868;BME280;33517;49.866;8.320;2023-04-27T05:43:24;100744.69;;;9.56;69.01
12868;BME280;33517;49.866;8.320;2023-04-27T05:46:16;100736.78;;;10.68;66.57
12868;BME280;33517;49.866;8.320;2023-04-27T05:49:08;100731.59;;;13.69;57.81
12868;BME280;33517;49.866;8.320;2023-04-27T05:52:00;100731.03;;;15.42;51.12
12868;BME280;33517;49.866;8.320;2023-04-27T05:54:52;100737.75;;;16.36;47.19
12868;BME280;33517;49.866;8.320;2023-04-27T05:57:44;100739.38;;;17.12;45.92
12868;BME280;33517;49.866;8.320;2023-04-27T06:00:37;100749.38;;;17.90;44.62
12868;BME280;33517;49.866;8.320;2023-04-27T06:03:29;100749.44;;;18.93;43.22
12868;BME280;33517;49.866;8.320;2023-04-27T06:06:22;100754.88;;;19.24;41.02
12868;BME280;33517;49.866;8.320;2023-04-27T06:09:14;100765.91;;;19.72;39.29
12868;BME280;33517;49.866;8.320;2023-04-27T06:12:07;100763.22;;;20.03;38.17
12868;BME280;33517;49.866;8.320;2023-04-27T06:14:59;100764.63;;;19.50;39.15
12868;BME280;33517;49.866;8.320;2023-04-27T06:17:54;100768.00;;;19.94;38.35
12868;BME280;33517;49.866;8.320;2023-04-27T06:20:46;100783.28;;;18.99;39.37
12868;BME280;33517;49.866;8.320;2023-04-27T06:23:38;100781.19;;;19.96;37.40
12868;BME280;33517;49.866;8.320;2023-04-27T06:26:30;100775.69;;;21.01;36.26
12868;BME280;33517;49.866;8.320;2023-04-27T06:29:23;100785.25;;;21.56;34.88
12868;BME280;33517;49.866;8.320;2023-04-27T06:32:15;100786.69;;;22.00;34.66
12868;BME280;33517;49.866;8.320;2023-04-27T06:35:09;100796.75;;;22.85;33.71
12868;BME280;33517;49.866;8.320;2023-04-27T06:38:01;100792.81;;;22.88;33.04
12868;BME280;33517;49.866;8.320;2023-04-27T06:40:53;100799.00;;;23.28;32.15
12868;BME280;33517;49.866;8.320;2023-04-27T06:43:45;100789.38;;;23.55;31.80
12868;BME280;33517;49.866;8.320;2023-04-27T06:46:37;100793.13;;;24.32;31.06
12868;BME280;33517;49.866;8.320;2023-04-27T06:49:28;100795.44;;;24.62;30.80
12868;BME280;33517;49.866;8.320;2023-04-27T06:52:22;100799.47;;;25.19;30.14
12868;BME280;33517;49.866;8.320;2023-04-27T06:55:13;100794.91;;;23.37;31.94
12868;BME280;33517;49.866;8.320;2023-04-27T06:58:05;100801.91;;;20.25;34.84
12868;BME280;33517;49.866;8.320;2023-04-27T07:00:57;100792.22;;;18.73;37.10
12868;BME280;33517;49.866;8.320;2023-04-27T07:03:50;100789.97;;;18.31;37.73
12868;BME280;33517;49.866;8.320;2023-04-27T07:06:41;100788.31;;;17.97;38.24
12868;BME280;33517;49.866;8.320;2023-04-27T07:09:35;100787.53;;;18.29;37.63
12868;BME280;33517;49.866;8.320;2023-04-27T07:12:27;100782.59;;;18.53;37.22
12868;BME280;33517;49.866;8.320;2023-04-27T07:15:20;100788.81;;;19.55;36.30
12868;BME280;33517;49.866;8.320;2023-04-27T07:18:12;100781.09;;;20.76;35.18
12868;BME280;33517;49.866;8.320;2023-04-27T07:21:04;100781.53;;;21.87;33.96
12868;BME280;33517;49.866;8.320;2023-04-27T07:23:56;100788.91;;;21.14;34.59
12868;BME280;33517;49.866;8.320;2023-04-27T07:26:49;100787.38;;;21.00;35.38
12868;BME280;33517;49.866;8.320;2023-04-27T07:29:41;100786.13;;;21.21;34.90
12868;BME280;33517;49.866;8.320;2023-04-27T07:32:34;100790.84;;;20.22;34.46
12868;BME280;33517;49.866;8.320;2023-04-27T07:35:26;100785.38;;;20.35;34.90
12868;BME280;33517;49.866;8.320;2023-04-27T07:38:18;100781.19;;;20.45;33.39
12868;BME280;33517;49.866;8.320;2023-04-27T07:41:10;100777.44;;;20.28;34.20
12868;BME280;33517;49.866;8.320;2023-04-27T07:44:05;100772.06;;;20.71;33.41
12868;BME280;33517;49.866;8.320;2023-04-27T07:46:57;100780.56;;;20.86;32.63
12868;BME280;33517;49.866;8.320;2023-04-27T07:49:49;100774.78;;;25.49;28.82
12868;BME280;33517;49.866;8.320;2023-04-27T07:52:42;100769.16;;;24.69;29.01
12868;BME280;33517;49.866;8.320;2023-04-27T07:55:34;100767.97;;;26.00;27.00
12868;BME280;33517;49.866;8.320;2023-04-27T07:58:26;100773.63;;;27.28;26.94
12868;BME280;33517;49.866;8.320;2023-04-27T08:01:19;100772.38;;;28.62;25.20
12868;BME280;33517;49.866;8.320;2023-04-27T08:04:11;100773.38;;;29.50;24.07
12868;BME280;33517;49.866;8.320;2023-04-27T08:07:05;100772.94;;;30.10;24.02
12868;BME280;33517;49.866;8.320;2023-04-27T08:09:57;100765.53;;;30.49;23.32
12868;BME280;33517;49.866;8.320;2023-04-27T08:12:49;100782.16;;;31.37;23.04
12868;BME280;33517;49.866;8.320;2023-04-27T08:15:41;100775.38;;;31.91;23.36
12868;BME280;33517;49.866;8.320;2023-04-27T08:18:34;100768.31;;;31.90;22.52
12868;BME280;33517;49.866;8.320;2023-04-27T08:21:26;100765.28;;;32.69;22.25
12868;BME280;33517;49.866;8.320;2023-04-27T08:24:20;100765.88;;;32.93;21.62
12868;BME280;33517;49.866;8.320;2023-04-27T08:27:11;100766.91;;;33.60;21.11
12868;BME280;33517;49.866;8.320;2023-04-27T08:30:07;100759.31;;;32.81;21.19
12868;BME280;33517;49.866;8.320;2023-04-27T08:32:59;100763.69;;;31.71;21.91
12868;BME280;33517;49.866;8.320;2023-04-27T08:35:53;100758.94;;;30.27;22.31
12868;BME280;33517;49.866;8.320;2023-04-27T08:38:45;100751.38;;;29.13;21.34
12868;BME280;33517;49.866;8.320;2023-04-27T08:41:41;100750.25;;;28.25;22.73
12868;BME280;33517;49.866;8.320;2023-04-27T08:44:37;100761.53;;;29.36;22.34
12868;BME280;33517;49.866;8.320;2023-04-27T08:47:29;100752.78;;;28.85;23.20
12868;BME280;33517;49.866;8.320;2023-04-27T08:50:21;100761.78;;;29.83;22.97
12868;BME280;33517;49.866;8.320;2023-04-27T08:53:18;100757.94;;;30.70;22.13
12868;BME280;33517;49.866;8.320;2023-04-27T08:56:11;100761.25;;;32.07;20.67
12868;BME280;33517;49.866;8.320;2023-04-27T08:59:12;100772.91;;;32.40;21.18
12868;BME280;33517;49.866;8.320;2023-04-27T09:02:04;100770.94;;;33.00;20.57
12868;BME280;33517;49.866;8.320;2023-04-27T09:04:56;100772.28;;;32.29;20.19
12868;BME280;33517;49.866;8.320;2023-04-27T09:07:57;100769.66;;;31.55;19.86
12868;BME280;33517;49.866;8.320;2023-04-27T09:10:51;100767.66;;;31.79;20.51
12868;BME280;33517;49.866;8.320;2023-04-27T09:13:44;100767.44;;;33.48;18.84
12868;BME280;33517;49.866;8.320;2023-04-27T09:16:36;100757.16;;;33.32;19.78
12868;BME280;33517;49.866;8.320;2023-04-27T09:19:29;100758.41;;;34.06;18.49
12868;BME280;33517;49.866;8.320;2023-04-27T09:22:21;100759.59;;;33.91;19.28
12868;BME280;33517;49.866;8.320;2023-04-27T09:25:21;100760.94;;;35.03;18.20
12868;BME280;33517;49.866;8.320;2023-04-27T09:28:15;100750.03;;;34.02;18.16
12868;BME280;33517;49.866;8.320;2023-04-27T09:31:07;100748.97;;;34.43;18.17
12868;BME280;33517;49.866;8.320;2023-04-27T09:34:00;100741.81;;;33.80;17.59
12868;BME280;33517;49.866;8.320;2023-04-27T09:36:53;100739.81;;;34.16;18.46
12868;BME280;33517;49.866;8.320;2023-04-27T09:39:46;100744.59;;;34.64;17.80
12868;BME280;33517;49.866;8.320;2023-04-27T09:42:39;100752.75;;;35.20;18.04
12868;BME280;33517;49.866;8.320;2023-04-27T09:45:33;100748.41;;;35.10;16.51
12868;BME280;33517;49.866;8.320;2023-04-27T09:48:25;100746.50;;;34.55;17.30
12868;BME280;33517;49.866;8.320;2023-04-27T09:51:17;100739.13;;;34.72;17.22
12868;BME280;33517;49.866;8.320;2023-04-27T09:54:10;100739.56;;;34.96;16.56
12868;BME280;33517;49.866;8.320;2023-04-27T09:57:12;100734.91;;;34.58;16.22
12868;BME280;33517;49.866;8.320;2023-04-27T10:00:16;100736.38;;;34.33;17.90
12868;BME280;33517;49.866;8.320;2023-04-27T10:03:21;100739.75;;;35.34;17.39
12868;BME280;33517;49.866;8.320;2023-04-27T10:06:48;100736.25;;;34.86;16.82
12868;BME280;33517;49.866;8.320;2023-04-27T10:09:44;100731.69;;;35.20;17.46
12868;BME280;33517;49.866;8.320;2023-04-27T10:12:36;100732.88;;;34.80;16.16
12868;BME280;33517;49.866;8.320;2023-04-27T10:15:29;100729.97;;;35.50;16.83
12868;BME280;33517;49.866;8.320;2023-04-27T10:18:27;100734.47;;;34.64;15.12
12868;BME280;33517;49.866;8.320;2023-04-27T10:21:20;100730.88;;;33.36;17.49
12868;BME280;33517;49.866;8.320;2023-04-27T10:24:13;100726.09;;;32.79;17.61
12868;BME280;33517;49.866;8.320;2023-04-27T10:27:07;100730.19;;;32.22;18.72
12868;BME280;33517;49.866;8.320;2023-04-27T10:30:08;100712.34;;;33.46;17.90
12868;BME280;33517;49.866;8.320;2023-04-27T10:33:05;100718.31;;;33.93;18.36
12868;BME280;33517;49.866;8.320;2023-04-27T10:35:58;100718.69;;;34.00;17.53
12868;BME280;33517;49.866;8.320;2023-04-27T10:38:55;100714.28;;;34.12;17.76
12868;BME280;33517;49.866;8.320;2023-04-27T10:41:51;100706.75;;;33.52;18.51
12868;BME280;33517;49.866;8.320;2023-04-27T10:44:53;100713.00;;;33.96;17.51
12868;BME280;33517;49.866;8.320;2023-04-27T10:47:45;100709.91;;;33.45;17.21
12868;BME280;33517;49.866;8.320;2023-04-27T10:50:37;100714.53;;;34.81;16.14
12868;BME280;33517;49.866;8.320;2023-04-27T10:53:34;100706.69;;;33.65;17.46
12868;BME280;33517;49.866;8.320;2023-04-27T10:56:26;100704.09;;;33.82;16.06
12868;BME280;33517;49.866;8.320;2023-04-27T10:59:18;100713.97;;;32.98;17.42
12868;BME280;33517;49.866;8.320;2023-04-27T11:02:10;100705.03;;;32.71;17.51
12868;BME280;33517;49.866;8.320;2023-04-27T11:05:03;100708.91;;;32.24;16.54
12868;BME280;33517;49.866;8.320;2023-04-27T11:08:05;100701.25;;;30.40;19.61
12868;BME280;33517;49.866;8.320;2023-04-27T11:10:59;100697.16;;;31.27;18.93
12868;BME280;33517;49.866;8.320;2023-04-27T11:13:51;100689.13;;;33.00;17.66
12868;BME280;33517;49.866;8.320;2023-04-27T11:16:46;100690.31;;;33.07;17.92
12868;BME280;33517;49.866;8.320;2023-04-27T11:19:45;100673.38;;;32.02;18.42
12868;BME280;33517;49.866;8.320;2023-04-27T11:22:43;100674.13;;;31.01;19.30
12868;BME280;33517;49.866;8.320;2023-04-27T11:25:36;100674.41;;;30.10;19.74
12868;BME280;33517;49.866;8.320;2023-04-27T11:28:29;100674.59;;;30.42;18.94
12868;BME280;33517;49.866;8.320;2023-04-27T11:31:22;100674.34;;;30.15;19.46
12868;BME280;33517;49.866;8.320;2023-04-27T11:34:14;100670.34;;;29.45;20.09
12868;BME280;33517;49.866;8.320;2023-04-27T11:37:06;100670.06;;;29.46;20.03
12868;BME280;33517;49.866;8.320;2023-04-27T11:39:59;100666.59;;;30.74;19.87
12868;BME280;33517;49.866;8.320;2023-04-27T11:42:55;100667.53;;;30.88;19.88
12868;BME280;33517;49.866;8.320;2023-04-27T11:45:49;100655.06;;;29.59;20.12
12868;BME280;33517;49.866;8.320;2023-04-27T11:48:41;100660.03;;;29.42;19.66
12868;BME280;33517;49.866;8.320;2023-04-27T11:51:34;100654.94;;;29.69;20.85
12868;BME280;33517;49.866;8.320;2023-04-27T11:54:27;100643.63;;;31.22;19.71
12868;BME280;33517;49.866;8.320;2023-04-27T11:57:23;100653.31;;;30.72;19.50
12868;BME280;33517;49.866;8.320;2023-04-27T12:00:17;100653.84;;;30.51;19.51
12868;BME280;33517;49.866;8.320;2023-04-27T12:03:11;100647.88;;;30.72;19.42
12868;BME280;33517;49.866;8.320;2023-04-27T12:06:03;100632.53;;;28.02;20.56
12868;BME280;33517;49.866;8.320;2023-04-27T12:08:55;100631.47;;;28.72;21.04
12868;BME280;33517;49.866;8.320;2023-04-27T12:11:47;100630.19;;;29.08;20.40
12868;BME280;33517;49.866;8.320;2023-04-27T12:14:39;100629.63;;;29.16;20.12
12868;BME280;33517;49.866;8.320;2023-04-27T12:17:31;100629.97;;;28.99;20.53
12868;BME280;33517;49.866;8.320;2023-04-27T12:20:24;100627.19;;;28.66;20.64
12868;BME280;33517;49.866;8.320;2023-04-27T12:23:16;100636.84;;;28.08;21.11
12868;BME280;33517;49.866;8.320;2023-04-27T12:26:08;100633.00;;;28.24;20.81
12868;BME280;33517;49.866;8.320;2023-04-27T12:29:00;100623.03;;;28.83;20.73
12868;BME280;33517;49.866;8.320;2023-04-27T12:31:53;100622.88;;;29.03;20.93
12868;BME280;33517;49.866;8.320;2023-04-27T12:34:45;100619.72;;;29.35;20.60
12868;BME280;33517;49.866;8.320;2023-04-27T12:37:38;100619.06;;;30.06;20.95
12868;BME280;33517;49.866;8.320;2023-04-27T12:40:32;100627.63;;;30.41;20.64
12868;BME280;33517;49.866;8.320;2023-04-27T12:43:23;100619.06;;;30.06;20.78
12868;BME280;33517;49.866;8.320;2023-04-27T12:46:16;100612.00;;;28.70;20.96
12868;BME280;33517;49.866;8.320;2023-04-27T12:49:09;100608.63;;;28.29;21.28
12868;BME280;33517;49.866;8.320;2023-04-27T12:52:02;100610.84;;;28.17;21.80
12868;BME280;33517;49.866;8.320;2023-04-27T12:54:55;100610.03;;;28.80;21.50
12868;BME280;33517;49.866;8.320;2023-04-27T12:57:48;100611.13;;;28.10;22.30
12868;BME280;33517;49.866;8.320;2023-04-27T13:00:40;100606.06;;;27.54;22.55
12868;BME280;33517;49.866;8.320;2023-04-27T13:03:32;100610.94;;;26.39;23.01
12868;BME280;33517;49.866;8.320;2023-04-27T13:06:24;100605.09;;;25.64;23.53
12868;BME280;33517;49.866;8.320;2023-04-27T13:09:16;100596.44;;;24.72;24.62
12868;BME280;33517;49.866;8.320;2023-04-27T13:12:09;100599.44;;;24.32;25.36
12868;BME280;33517;49.866;8.320;2023-04-27T13:15:01;100590.00;;;24.30;25.35
12868;BME280;33517;49.866;8.320;2023-04-27T13:17:53;100585.34;;;24.25;25.30
12868;BME280;33517;49.866;8.320;2023-04-27T13:20:47;100588.03;;;24.25;25.60
12868;BME280;33517;49.866;8.320;2023-04-27T13:23:39;100587.09;;;23.76;25.86
12868;BME280;33517;49.866;8.320;2023-04-27T13:26:31;100582.16;;;23.52;25.84
12868;BME280;33517;49.866;8.320;2023-04-27T13:29:24;100590.28;;;22.79;26.87
12868;BME280;33517;49.866;8.320;2023-04-27T13:32:16;100588.69;;;22.15;27.59
12868;BME280;33517;49.866;8.320;2023-04-27T13:35:08;100583.19;;;22.22;27.92
12868;BME280;33517;49.866;8.320;2023-04-27T13:38:00;100597.00;;;22.42;28.44
12868;BME280;33517;49.866;8.320;2023-04-27T13:40:52;100597.53;;;22.27;28.08
12868;BME280;33517;49.866;8.320;2023-04-27T13:43:44;100602.69;;;21.82;27.99
12868;BME280;33517;49.866;8.320;2023-04-27T13:46:38;100588.91;;;21.79;28.30
12868;BME280;33517;49.866;8.320;2023-04-27T13:49:30;100584.72;;;21.37;29.02
12868;BME280;33517;49.866;8.320;2023-04-27T13:52:21;100588.38;;;20.83;29.53
12868;BME280;33517;49.866;8.320;2023-04-27T13:55:14;100584.88;;;20.82;29.63
12868;BME280;33517;49.866;8.320;2023-04-27T13:58:06;100588.50;;;20.76;30.21
12868;BME280;33517;49.866;8.320;2023-04-27T14:00:58;100581.94;;;19.88;31.67
12868;BME280;33517;49.866;8.320;2023-04-27T14:03:52;100594.50;;;19.81;32.48
12868;BME280;33517;49.866;8.320;2023-04-27T14:06:44;100590.34;;;19.67;32.37
12868;BME280;33517;49.866;8.320;2023-04-27T14:09:36;100586.63;;;19.12;33.42
12868;BME280;33517;49.866;8.320;2023-04-27T14:12:29;100590.59;;;19.10;33.66
12868;BME280;33517;49.866;8.320;2023-04-27T14:15:21;100603.97;;;18.97;33.64
12868;BME280;33517;49.866;8.320;2023-04-27T14:18:13;100601.31;;;18.59;34.63
12868;BME280;33517;49.866;8.320;2023-04-27T14:21:06;100595.84;;;18.85;33.86
12868;BME280;33517;49.866;8.320;2023-04-27T14:23:58;100587.25;;;19.46;33.17
12868;BME280;33517;49.866;8.320;2023-04-27T14:26:50;100586.41;;;19.70;32.96
12868;BME280;33517;49.866;8.320;2023-04-27T14:29:42;100583.00;;;19.81;32.82
12868;BME280;33517;49.866;8.320;2023-04-27T14:32:34;100582.88;;;19.94;32.63
12868;BME280;33517;49.866;8.320;2023-04-27T14:35:27;100585.63;;;20.05;32.81
12868;BME280;33517;49.866;8.320;2023-04-27T14:38:21;100578.97;;;20.33;32.13
12868;BME280;33517;49.866;8.320;2023-04-27T14:41:14;100587.06;;;19.65;33.27
12868;BME280;33517;49.866;8.320;2023-04-27T14:44:07;100579.88;;;19.41;34.17
12868;BME280;33517;49.866;8.320;2023-04-27T14:46:59;100573.00;;;19.76;33.63
12868;BME280;33517;49.866;8.320;2023-04-27T14:49:51;100575.38;;;19.84;33.57
12868;BME280;33517;49.866;8.320;2023-04-27T14:52:42;100578.91;;;20.39;33.15
12868;BME280;33517;49.866;8.320;2023-04-27T14:55:37;100580.22;;;20.48;32.79
12868;BME280;33517;49.866;8.320;2023-04-27T14:58:30;100573.91;;;19.88;33.49
12868;BME280;33517;49.866;8.320;2023-04-27T15:01:22;100569.72;;;19.92;33.33
12868;BME280;33517;49.866;8.320;2023-04-27T15:04:14;100569.97;;;19.91;33.53
12868;BME280;33517;49.866;8.320;2023-04-27T15:07:06;100566.41;;;19.97;33.22